Time;durP1;ratioP1;P1;durP2;ratioP2;P2;SDS_P1;SDS_P2;PMS_P1;PMS_P2;Temp;Humidity;BMP_temperature;BMP_pressure;BME280_temperature;BME280_humidity;BME280_pressure;Samples;Min_cycle;Max_cycle;Signal;HPM_P1;HPM_P2
2023/12/31 00:00:32;;;;;;;;;3.00;3.00;;;;;9.93;81.43;99649.66;4995545;27;45474;-82
2023/12/31 00:02:57;;;;;;;;;3.00;3.00;;;;;9.89;81.31;99620.72;5011120;28;45408;-84
2023/12/31 00:05:22;;;;;;;;;5.00;5.00;;;;;9.91;81.07;99618.84;4987710;28;49760;-83
2023/12/31 00:07:48;;;;;;;;;4.00;4.00;;;;;10.01;81.74;99626.06;4975991;28;45286;-82
2023/12/31 00:10:13;;;;;;;;;7.67;3.00;;;;;10.02;81.63;99614.47;4976723;28;45423;-82
2023/12/31 00:12:38;;;;;;;;;6.00;5.00;;;;;10.02;81.11;99598.53;4978584;28;45338;-84
2023/12/31 00:15:04;;;;;;;;;9.00;5.33;;;;;10.01;81.32;99596.00;4992238;27;45562;-84
2023/12/31 00:17:30;;;;;;;;;4.33;4.33;;;;;9.99;81.50;99589.94;4976063;28;46275;-84
2023/12/31 00:19:56;;;;;;;;;8.25;4.75;;;;;10.06;81.65;99572.63;4975911;28;45337;-83
2023/12/31 00:22:21;;;;;;;;;4.00;4.00;;;;;10.05;81.70;99563.81;4975831;28;45314;-84
2023/12/31 00:24:46;;;;;;;;;4.00;4.00;;;;;10.08;81.28;99556.59;4976175;28;45576;-85
2023/12/31 00:27:12;;;;;;;;;2.75;2.75;;;;;9.95;80.94;99536.19;4995297;27;46135;-83
2023/12/31 00:29:37;;;;;;;;;4.50;4.50;;;;;9.97;82.13;99544.03;5010166;28;52030;-82
2023/12/31 00:32:02;;;;;;;;;4.50;4.50;;;;;9.91;81.71;99524.09;5010768;27;45715;-83
2023/12/31 00:34:28;;;;;;;;;4.00;4.00;;;;;9.96;81.89;99537.88;4996154;28;45721;-85
2023/12/31 00:36:53;;;;;;;;;5.67;4.33;;;;;9.99;81.74;99537.66;4977376;28;45612;-84
2023/12/31 00:39:18;;;;;;;;;6.50;2.25;;;;;9.87;82.09;99506.66;4976166;28;51470;-84
2023/12/31 00:41:44;;;;;;;;;4.00;4.00;;;;;9.95;81.86;99516.75;4991541;28;45808;-83
2023/12/31 00:44:09;;;;;;;;;4.00;4.00;;;;;10.01;82.43;99530.44;4980624;28;45382;-85
2023/12/31 00:46:34;;;;;;;;;6.67;6.67;;;;;10.02;81.78;99521.50;4976300;28;46007;-83
2023/12/31 00:48:59;;;;;;;;;2.67;2.67;;;;;10.08;82.08;99503.44;4976125;28;60142;-85
2023/12/31 00:51:25;;;;;;;;;5.33;4.33;;;;;10.04;82.15;99508.13;4981444;28;49398;-83
2023/12/31 00:53:50;;;;;;;;;8.00;5.33;;;;;9.99;82.60;99484.53;4992846;28;45507;-82
2023/12/31 00:56:16;;;;;;;;;4.00;2.00;;;;;10.03;82.60;99496.66;5008192;28;45334;-81
2023/12/31 00:58:41;;;;;;;;;7.00;7.00;;;;;10.03;82.52;99490.50;4999481;28;54530;-84
2023/12/31 01:01:06;;;;;;;;;8.00;5.67;;;;;10.11;83.05;99487.28;4997186;28;45346;-85
2023/12/31 01:03:33;;;;;;;;;2.75;2.75;;;;;10.09;82.69;99481.22;4996004;27;45579;-85
2023/12/31 01:06:05;;;;;;;;;7.00;7.00;;;;;10.11;82.54;99488.13;4993349;28;45349;-84
2023/12/31 01:08:31;;;;;;;;;5.00;5.00;;;;;10.15;81.95;99483.44;4993272;28;45427;-85
2023/12/31 01:10:56;;;;;;;;;7.00;7.00;;;;;10.16;82.07;99463.91;5009901;28;45349;-87
2023/12/31 01:13:21;;;;;;;;;4.50;4.50;;;;;10.17;81.75;99454.97;4993250;27;47645;-85
2023/12/31 01:15:47;;;;;;;;;3.25;3.25;;;;;10.15;81.75;99446.25;4993760;28;45359;-81
2023/12/31 01:18:12;;;;;;;;;8.75;7.25;;;;;10.03;81.88;99430.25;4994864;28;45361;-82
2023/12/31 01:20:37;;;;;;;;;4.25;4.25;;;;;10.05;82.08;99433.66;4995107;28;45491;-82
2023/12/31 01:23:03;;;;;;;;;7.00;3.00;;;;;10.03;82.67;99442.69;4994287;28;45314;-82
2023/12/31 01:25:28;;;;;;;;;6.33;4.33;;;;;10.07;82.09;99438.84;4992168;28;46115;-83
2023/12/31 01:27:55;;;;;;;;;3.50;3.50;;;;;10.07;81.57;99428.22;4993878;28;55918;-84
2023/12/31 01:30:22;;;;;;;;;8.50;6.50;;;;;10.08;81.64;99407.81;4994335;28;45250;-83
2023/12/31 01:32:48;;;;;;;;;4.25;2.00;;;;;10.05;81.68;99404.44;4994645;27;45541;-83
2023/12/31 01:35:13;;;;;;;;;6.25;6.00;;;;;10.08;81.42;99397.19;4992577;28;46028;-82
2023/12/31 01:37:39;;;;;;;;;7.00;6.67;;;;;10.03;82.30;99394.88;4994420;28;45182;-83
2023/12/31 01:40:05;;;;;;;;;7.00;4.00;;;;;10.06;81.76;99399.97;4994268;28;45180;-82
2023/12/31 01:42:30;;;;;;;;;6.67;4.00;;;;;10.06;81.27;99378.72;4992764;28;45595;-81
2023/12/31 01:44:55;;;;;;;;;10.50;5.00;;;;;10.05;81.41;99361.94;4990223;27;45451;-80
2023/12/31 01:47:21;;;;;;;;;7.50;5.25;;;;;10.05;80.89;99369.06;4974310;28;45449;-82
2023/12/31 01:49:48;;;;;;;;;6.00;6.00;;;;;10.05;81.47;99356.63;4974862;28;45410;-84
2023/12/31 01:52:13;;;;;;;;;7.00;7.00;;;;;10.02;80.76;99370.09;4974692;28;45435;-83
2023/12/31 01:54:40;;;;;;;;;7.50;6.50;;;;;10.02;81.14;99351.50;4974511;28;46214;-81
2023/12/31 01:57:06;;;;;;;;;7.00;7.00;;;;;10.07;81.47;99345.88;4991416;28;45250;-82
2023/12/31 01:59:31;;;;;;;;;3.00;3.00;;;;;10.10;81.11;99358.06;4975682;28;45323;-83
2023/12/31 02:01:57;;;;;;;;;5.00;5.00;;;;;10.07;80.53;99342.38;4975373;28;45298;-85
2023/12/31 02:04:22;;;;;;;;;5.00;5.00;;;;;10.14;80.61;99335.63;4975137;28;46065;-82
2023/12/31 02:06:48;;;;;;;;;7.50;5.75;;;;;10.05;79.99;99307.97;4993045;28;45260;-83
2023/12/31 02:09:14;;;;;;;;;3.00;3.00;;;;;10.14;80.51;99314.38;4993831;28;45246;-82
2023/12/31 02:11:40;;;;;;;;;2.33;2.33;;;;;10.15;80.52;99314.25;4993912;28;45620;-81
2023/12/31 02:14:05;;;;;;;;;7.00;7.00;;;;;10.18;80.01;99306.06;4992236;28;46172;-82
2023/12/31 02:16:31;;;;;;;;;8.00;7.00;;;;;10.19;79.59;99312.25;4992301;27;45271;-82
2023/12/31 02:18:56;;;;;;;;;4.50;4.50;;;;;10.19;79.74;99283.84;4993544;28;45381;-84
2023/12/31 02:21:22;;;;;;;;;4.75;4.75;;;;;10.18;79.29;99297.25;4990241;28;45352;-81
2023/12/31 02:23:47;;;;;;;;;6.75;6.75;;;;;10.12;80.48;99271.13;4993593;27;45940;-82
2023/12/31 02:26:12;;;;;;;;;6.50;4.50;;;;;10.20;79.22;99285.56;4991390;28;45474;-83
2023/12/31 02:28:38;;;;;;;;;6.25;4.50;;;;;10.18;79.84;99254.75;4993667;28;45353;-80
2023/12/31 02:31:04;;;;;;;;;4.25;3.00;;;;;10.13;79.22;99231.16;4993684;27;45661;-83
2023/12/31 02:33:30;;;;;;;;;3.00;3.00;;;;;10.17;79.43;99253.06;4992846;27;45484;-82
2023/12/31 02:35:55;;;;;;;;;3.50;3.25;;;;;10.13;79.54;99241.81;4994417;28;45542;-82
2023/12/31 02:38:21;;;;;;;;;4.33;4.33;;;;;10.20;79.08;99250.16;4990720;28;46771;-82
2023/12/31 02:40:46;;;;;;;;;7.00;4.00;;;;;10.18;79.29;99250.28;4983381;27;45279;-83
2023/12/31 02:43:11;;;;;;;;;5.33;5.33;;;;;10.19;78.91;99232.53;4992015;28;45334;-81
2023/12/31 02:45:37;;;;;;;;;4.00;4.00;;;;;10.12;79.50;99224.16;4991217;28;62345;-84
2023/12/31 02:48:03;;;;;;;;;4.00;4.00;;;;;10.18;79.24;99233.50;4993571;28;45294;-83
2023/12/31 02:50:31;;;;;;;;;4.50;4.00;;;;;10.23;78.86;99231.38;4993856;28;45510;-86
2023/12/31 02:52:56;;;;;;;;;5.00;3.00;;;;;10.25;79.20;99227.63;5004379;28;47966;-84
2023/12/31 02:55:21;;;;;;;;;6.00;4.00;;;;;10.32;78.38;99242.16;4983062;28;45404;-86
2023/12/31 02:57:47;;;;;;;;;4.33;4.33;;;;;10.38;77.77;99245.28;5008705;28;46461;-86
2023/12/31 03:00:12;;;;;;;;;4.00;4.00;;;;;10.44;77.72;99235.03;4994114;28;45283;-86
2023/12/31 03:02:40;;;;;;;;;5.33;3.00;;;;;10.48;77.64;99231.19;4993093;27;45337;-82
2023/12/31 03:05:07;;;;;;;;;4.33;4.33;;;;;10.49;77.60;99232.88;4991719;28;45321;-82
2023/12/31 03:07:33;;;;;;;;;3.00;3.00;;;;;10.50;77.60;99221.25;4993010;27;45263;-80
2023/12/31 03:09:58;;;;;;;;;3.67;2.33;;;;;10.56;77.08;99218.16;4993032;28;45299;-82
2023/12/31 03:12:23;;;;;;;;;7.00;4.67;;;;;10.62;76.98;99212.34;4976996;28;47530;-81
2023/12/31 03:14:49;;;;;;;;;3.00;3.00;;;;;10.55;76.96;99197.00;4974977;28;45243;-82
2023/12/31 03:17:14;;;;;;;;;2.33;2.33;;;;;10.65;76.42;99211.25;4992984;28;45377;-81
2023/12/31 03:19:39;;;;;;;;;5.00;4.00;;;;;10.66;75.88;99198.78;5007812;28;46693;-82
2023/12/31 03:22:05;;;;;;;;;3.00;3.00;;;;;10.72;76.24;99195.69;4990746;28;45416;-82
2023/12/31 03:24:30;;;;;;;;;4.00;4.00;;;;;10.77;76.04;99188.16;4992314;28;45226;-81
2023/12/31 03:26:56;;;;;;;;;2.00;2.00;;;;;10.72;76.02;99147.81;4973886;27;45398;-83
2023/12/31 03:29:21;;;;;;;;;3.00;3.00;;;;;10.75;76.58;99155.53;4973827;28;45409;-81
2023/12/31 03:31:46;;;;;;;;;3.00;3.00;;;;;10.79;76.64;99154.31;4978189;28;45413;-82
2023/12/31 03:34:12;;;;;;;;;3.00;3.00;;;;;10.77;76.12;99145.63;4995882;28;45404;-84
2023/12/31 03:36:37;;;;;;;;;7.33;3.00;;;;;10.79;75.96;99149.00;4994237;28;48000;-82
2023/12/31 03:39:02;;;;;;;;;1.67;1.00;;;;;10.81;75.43;99136.44;4995982;27;45282;-82
2023/12/31 03:41:28;;;;;;;;;3.00;2.00;;;;;10.69;75.34;99094.88;5010740;27;46799;-83
2023/12/31 03:43:53;;;;;;;;;4.00;2.33;;;;;10.92;74.88;99131.94;4995952;28;45424;-84
2023/12/31 03:46:18;;;;;;;;;2.00;2.00;;;;;10.98;75.37;99122.63;4994325;28;45310;-84
2023/12/31 03:48:44;;;;;;;;;4.33;3.00;;;;;10.96;74.83;99127.22;4996043;28;45362;-84
2023/12/31 03:51:09;;;;;;;;;3.00;3.00;;;;;11.09;74.85;99119.94;4995655;28;47320;-85
2023/12/31 03:53:35;;;;;;;;;3.00;3.00;;;;;11.13;75.23;99108.06;4994422;28;45312;-83
2023/12/31 03:56:00;;;;;;;;;3.67;3.00;;;;;11.15;75.55;99126.56;4994605;27;45352;-82
2023/12/31 03:58:26;;;;;;;;;4.00;4.00;;;;;11.06;75.85;99112.19;4996317;28;45238;-84
2023/12/31 04:00:51;;;;;;;;;2.00;2.00;;;;;11.05;76.84;99107.84;4995587;28;55439;-83
2023/12/31 04:03:16;;;;;;;;;3.00;3.00;;;;;11.11;77.01;99123.31;4995626;28;45315;-84
2023/12/31 04:05:42;;;;;;;;;6.33;3.00;;;;;11.14;77.31;99107.09;4992648;28;45305;-83
2023/12/31 04:08:07;;;;;;;;;3.00;3.00;;;;;11.09;77.73;99119.94;4995623;28;45678;-83
2023/12/31 04:10:32;;;;;;;;;5.00;4.00;;;;;11.10;77.33;99121.63;4995539;27;45791;-84
2023/12/31 04:12:58;;;;;;;;;5.00;3.00;;;;;11.04;77.27;99106.16;4994257;28;45942;-83
2023/12/31 04:15:23;;;;;;;;;3.00;2.00;;;;;11.10;77.90;99105.66;5008723;28;63279;-85
2023/12/31 04:17:48;;;;;;;;;4.00;3.00;;;;;11.07;77.84;99140.50;5011152;28;45680;-84
2023/12/31 04:20:14;;;;;;;;;2.67;2.67;;;;;11.02;78.01;99121.41;4993888;28;45983;-82
2023/12/31 04:22:39;;;;;;;;;2.00;2.00;;;;;11.01;77.94;99106.41;4994809;28;63624;-84
2023/12/31 04:25:05;;;;;;;;;0.00;0.00;;;;;10.97;76.89;99090.84;4991831;27;61596;-82
2023/12/31 04:27:31;;;;;;;;;2.00;2.00;;;;;10.93;77.22;99074.25;4979874;28;45438;-82
2023/12/31 04:29:57;;;;;;;;;3.00;1.00;;;;;10.86;77.28;99049.16;4984275;28;45904;-84
2023/12/31 04:32:25;;;;;;;;;1.00;1.00;;;;;10.80;77.71;99062.94;4981256;28;45403;-86
2023/12/31 04:34:50;;;;;;;;;1.00;1.00;;;;;10.75;76.80;99065.13;4977065;28;45357;-83
2023/12/31 04:37:15;;;;;;;;;1.67;1.67;;;;;10.70;77.39;99075.31;4977247;28;45232;-82
2023/12/31 04:39:41;;;;;;;;;1.00;1.00;;;;;10.67;76.62;99070.22;4988394;28;69201;-84
2023/12/31 04:42:06;;;;;;;;;1.00;1.00;;;;;10.61;76.54;99088.34;4997008;28;45381;-80
2023/12/31 04:44:31;;;;;;;;;3.00;1.00;;;;;10.54;76.00;99067.69;4997110;28;56174;-85
2023/12/31 04:46:57;;;;;;;;;0.00;0.00;;;;;10.52;76.63;99081.09;5013003;27;53034;-83
2023/12/31 04:49:22;;;;;;;;;1.00;1.00;;;;;10.37;76.42;99069.03;4985488;27;46403;-81
2023/12/31 04:51:47;;;;;;;;;0.00;0.00;;;;;10.40;76.53;99067.94;4975629;28;45366;-82
2023/12/31 04:54:13;;;;;;;;;0.00;0.00;;;;;10.43;76.27;99084.53;4976041;28;45219;-82
2023/12/31 04:56:38;;;;;;;;;0.33;0.00;;;;;10.40;76.04;99098.03;4974994;28;56797;-81
2023/12/31 04:59:03;;;;;;;;;0.00;0.00;;;;;10.31;76.11;99070.38;4994814;27;47041;-81
2023/12/31 05:01:32;;;;;;;;;0.00;0.00;;;;;10.40;75.74;99095.38;4995398;27;45226;-85
2023/12/31 05:03:58;;;;;;;;;0.00;0.00;;;;;10.36;74.75;99093.94;4994130;28;45365;-84
2023/12/31 05:06:24;;;;;;;;;4.00;0.00;;;;;10.37;75.49;99100.94;4995079;27;45560;-82
2023/12/31 05:08:50;;;;;;;;;0.00;0.00;;;;;10.30;75.46;99087.31;4992867;28;45376;-83
2023/12/31 05:11:15;;;;;;;;;0.00;0.00;;;;;10.37;75.91;99105.41;4994567;28;45463;-83
2023/12/31 05:13:41;;;;;;;;;0.00;0.00;;;;;10.34;75.62;99087.91;4994682;28;45422;-83
2023/12/31 05:16:13;;;;;;;;;0.00;0.00;;;;;10.37;75.33;99108.91;4992358;28;45518;-83
2023/12/31 05:18:38;;;;;;;;;1.00;0.00;;;;;10.34;76.38;99090.56;4991848;28;46077;-83
2023/12/31 05:21:04;;;;;;;;;0.00;0.00;;;;;10.33;76.10;99086.22;4994780;28;45474;-82
2023/12/31 05:23:30;;;;;;;;;0.00;0.00;;;;;10.32;76.02;99073.88;4995419;28;45522;-82
2023/12/31 05:25:56;;;;;;;;;0.00;0.00;;;;;10.35;75.64;99086.94;4995101;28;45631;-83
2023/12/31 05:28:21;;;;;;;;;0.00;0.00;;;;;10.33;74.70;99081.75;4992345;27;45445;-83
2023/12/31 05:30:46;;;;;;;;;0.00;0.00;;;;;10.24;74.91;99066.50;4984764;28;45522;-83
2023/12/31 05:33:12;;;;;;;;;0.00;0.00;;;;;10.33;73.98;99086.22;4994641;28;52834;-81
2023/12/31 05:35:37;;;;;;;;;0.00;0.00;;;;;10.31;73.83;99080.16;4995202;28;45472;-81
2023/12/31 05:38:03;;;;;;;;;1.67;0.00;;;;;10.29;73.69;99068.81;4992625;27;46090;-83
2023/12/31 05:40:28;;;;;;;;;0.00;0.00;;;;;10.20;73.88;99045.59;4994763;28;45309;-82
2023/12/31 05:42:54;;;;;;;;;0.00;0.00;;;;;10.25;72.69;99049.59;5009605;28;45289;-82
2023/12/31 05:45:19;;;;;;;;;0.00;0.00;;;;;10.28;72.62;99045.84;4994509;28;45208;-80
2023/12/31 05:47:46;;;;;;;;;0.00;0.00;;;;;10.21;72.09;99036.66;4992599;27;46310;-82
2023/12/31 05:50:11;;;;;;;;;0.00;0.00;;;;;10.16;72.28;99044.16;4993855;27;45426;-82
2023/12/31 05:52:37;;;;;;;;;0.00;0.00;;;;;10.13;72.23;99023.13;4994475;28;45462;-85
2023/12/31 05:55:02;;;;;;;;;0.00;0.00;;;;;10.08;71.99;99030.63;4995693;27;45429;-81
2023/12/31 05:57:28;;;;;;;;;0.00;0.00;;;;;9.98;71.85;99014.56;4991259;27;46234;-84
2023/12/31 05:59:53;;;;;;;;;1.00;0.00;;;;;9.97;72.05;99026.16;4974221;28;46989;-82
2023/12/31 06:02:18;;;;;;;;;0.33;0.00;;;;;9.86;73.24;99016.34;4991807;28;54847;-84
2023/12/31 06:04:44;;;;;;;;;0.00;0.00;;;;;9.76;72.80;99026.00;4994761;27;45321;-84
2023/12/31 06:07:09;;;;;;;;;0.00;0.00;;;;;9.79;72.81;99043.53;4992215;28;56075;-84
2023/12/31 06:09:34;;;;;;;;;1.00;0.00;;;;;9.68;72.98;99044.34;4993965;28;45331;-84
2023/12/31 06:11:59;;;;;;;;;0.00;0.00;;;;;9.70;73.14;99053.03;4986340;28;55848;-83
2023/12/31 06:14:25;;;;;;;;;0.00;0.00;;;;;9.70;72.32;99053.03;4974169;28;45329;-85
2023/12/31 06:16:50;;;;;;;;;1.00;0.00;;;;;9.70;72.26;99074.28;4974064;28;46080;-83
2023/12/31 06:19:15;;;;;;;;;2.00;0.00;;;;;9.64;72.56;99050.88;4993322;28;45375;-84
2023/12/31 06:21:41;;;;;;;;;0.00;0.00;;;;;9.66;71.81;99025.03;4993748;28;60209;-85
2023/12/31 06:24:06;;;;;;;;;0.00;0.00;;;;;9.82;71.58;99065.38;4994321;28;45262;-85
2023/12/31 06:26:31;;;;;;;;;0.67;0.00;;;;;9.76;71.55;99063.16;4994431;28;46424;-84
2023/12/31 06:28:57;;;;;;;;;0.00;0.00;;;;;9.88;70.54;99093.25;4991152;28;53690;-86
2023/12/31 06:31:22;;;;;;;;;0.00;0.00;;;;;9.91;70.23;99093.88;4993449;28;61882;-84
2023/12/31 06:33:47;;;;;;;;;0.00;0.00;;;;;9.97;69.89;99087.22;4993811;28;47948;-86
2023/12/31 06:36:12;;;;;;;;;0.00;0.00;;;;;9.99;69.73;99095.91;4992851;28;65628;-83
2023/12/31 06:38:40;;;;;;;;;0.00;0.00;;;;;9.96;69.70;99082.88;4991432;28;59762;-83
2023/12/31 06:41:07;;;;;;;;;0.00;0.00;;;;;9.88;69.00;99080.81;4996366;28;45319;-83
2023/12/31 06:43:33;;;;;;;;;0.00;0.00;;;;;10.05;68.88;99108.75;4986590;28;45588;-83
2023/12/31 06:45:59;;;;;;;;;0.00;0.00;;;;;10.05;69.27;99104.28;4973844;28;46466;-82
2023/12/31 06:48:24;;;;;;;;;1.00;0.00;;;;;10.01;68.76;99100.13;4984220;28;45377;-83
2023/12/31 06:50:49;;;;;;;;;0.00;0.00;;;;;10.01;68.87;99107.25;4992962;28;61552;-84
2023/12/31 06:53:15;;;;;;;;;0.00;0.00;;;;;10.00;69.21;99114.38;5009085;28;45465;-82
2023/12/31 06:55:40;;;;;;;;;0.00;0.00;;;;;10.02;68.09;99115.09;4993273;28;46042;-82
2023/12/31 06:58:05;;;;;;;;;1.67;0.00;;;;;10.02;68.85;99117.78;4991856;28;45398;-82
2023/12/31 07:00:31;;;;;;;;;0.00;0.00;;;;;10.03;68.31;99124.81;4992318;27;45245;-82
2023/12/31 07:02:56;;;;;;;;;0.00;0.00;;;;;10.05;68.34;99128.19;4993007;28;46292;-83
2023/12/31 07:05:21;;;;;;;;;0.00;0.00;;;;;10.01;68.55;99150.59;5006493;28;69925;-82
2023/12/31 07:07:46;;;;;;;;;0.33;0.00;;;;;10.05;68.17;99160.06;4992855;28;67153;-82
2023/12/31 07:10:12;;;;;;;;;0.00;0.00;;;;;10.00;68.65;99162.19;5011081;27;50522;-82
2023/12/31 07:12:37;;;;;;;;;0.00;0.00;;;;;10.00;69.41;99178.13;4996272;27;45210;-83
2023/12/31 07:15:03;;;;;;;;;2.33;0.00;;;;;9.88;69.75;99173.75;4996387;27;45236;-82
2023/12/31 07:17:28;;;;;;;;;0.00;0.00;;;;;9.78;69.61;99172.78;4994925;28;45451;-82
2023/12/31 07:19:54;;;;;;;;;0.00;0.00;;;;;9.66;69.86;99184.31;4995068;27;45411;-82
2023/12/31 07:22:19;;;;;;;;;0.00;0.00;;;;;9.76;69.26;99206.53;4994709;28;45164;-82
2023/12/31 07:24:44;;;;;;;;;0.00;0.00;;;;;9.71;69.83;99198.06;4995369;28;61154;-82
2023/12/31 07:27:09;;;;;;;;;0.00;0.00;;;;;9.64;70.61;99196.84;4994935;28;58408;-81
2023/12/31 07:29:35;;;;;;;;;0.00;0.00;;;;;9.61;69.97;99197.06;4994689;28;45308;-82
2023/12/31 07:32:00;;;;;;;;;1.00;0.00;;;;;9.67;70.10;99224.00;4996156;27;45446;-81
2023/12/31 07:34:25;;;;;;;;;0.00;0.00;;;;;9.60;70.88;99221.91;4996303;28;45552;-82
2023/12/31 07:36:51;;;;;;;;;0.00;0.00;;;;;9.61;69.60;99221.78;4995615;28;53160;-81
2023/12/31 07:39:16;;;;;;;;;0.00;0.00;;;;;9.60;70.38;99233.38;5009504;27;53176;-82
2023/12/31 07:41:41;;;;;;;;;0.00;0.00;;;;;9.59;69.59;99241.44;4995571;27;48343;-83
2023/12/31 07:44:06;;;;;;;;;0.00;0.00;;;;;9.58;69.50;99247.72;4996038;27;45389;-82
2023/12/31 07:46:32;;;;;;;;;0.00;0.00;;;;;9.56;70.66;99260.25;4995838;28;45335;-81
2023/12/31 07:48:57;;;;;;;;;0.25;0.00;;;;;9.57;69.58;99281.38;4982890;28;45484;-81
2023/12/31 07:51:22;;;;;;;;;0.00;0.00;;;;;9.58;70.41;99283.06;4976087;28;45543;-81
2023/12/31 07:53:48;;;;;;;;;0.00;0.00;;;;;9.62;69.46;99291.66;4976333;28;55956;-84
2023/12/31 07:56:13;;;;;;;;;0.00;0.00;;;;;9.61;69.86;99301.44;4976716;28;48541;-80
2023/12/31 07:58:38;;;;;;;;;0.00;0.00;;;;;9.66;69.64;99307.28;4992531;27;64707;-83
2023/12/31 08:01:04;;;;;;;;;0.00;0.00;;;;;9.70;69.20;99315.84;4999768;27;45536;-80
2023/12/31 08:03:29;;;;;;;;;0.00;0.00;;;;;9.73;69.28;99318.28;5000286;28;46086;-82
2023/12/31 08:05:55;;;;;;;;;0.33;0.00;;;;;9.77;69.57;99325.06;4999890;28;45369;-81
2023/12/31 08:08:20;;;;;;;;;0.00;0.00;;;;;9.79;69.25;99328.47;4997603;27;45356;-85
2023/12/31 08:10:45;;;;;;;;;0.00;0.00;;;;;9.80;69.34;99334.63;4997073;28;45428;-83
2023/12/31 08:13:11;;;;;;;;;0.33;0.00;;;;;9.83;68.61;99339.69;4998039;28;45290;-81
2023/12/31 08:15:37;;;;;;;;;1.00;0.00;;;;;9.66;68.89;99312.56;4997077;27;45253;-85
2023/12/31 08:18:03;;;;;;;;;0.33;0.00;;;;;9.68;68.82;99325.72;4988593;28;45929;-83
2023/12/31 08:20:28;;;;;;;;;0.00;0.00;;;;;9.78;68.65;99350.66;4995593;28;45625;-83
2023/12/31 08:22:54;;;;;;;;;2.33;0.00;;;;;9.77;68.45;99341.00;4997972;27;46263;-84
2023/12/31 08:25:19;;;;;;;;;0.00;0.00;;;;;9.75;69.22;99356.16;4996482;28;56613;-81
2023/12/31 08:27:45;;;;;;;;;1.00;0.00;;;;;9.74;69.35;99347.38;4996414;28;45276;-82
2023/12/31 08:30:11;;;;;;;;;2.00;1.00;;;;;9.76;69.69;99355.22;4996542;28;45444;-84
2023/12/31 08:32:36;;;;;;;;;0.33;0.00;;;;;9.69;69.21;99346.00;5001875;28;46224;-85
2023/12/31 08:35:01;;;;;;;;;0.00;0.00;;;;;9.82;68.74;99367.22;4975893;28;45627;-82
2023/12/31 08:37:27;;;;;;;;;0.00;0.00;;;;;9.76;68.66;99365.84;5064986;27;45524;-83
2023/12/31 08:39:52;;;;;;;;;6.00;0.00;;;;;9.85;69.77;99369.63;5020269;27;45708;-83
2023/12/31 08:42:17;;;;;;;;;0.67;0.67;;;;;9.82;68.30;99377.84;4995495;28;52969;-85
2023/12/31 08:44:43;;;;;;;;;0.00;0.00;;;;;9.82;68.87;99384.00;4995286;27;45724;-83
2023/12/31 08:47:09;;;;;;;;;1.00;1.00;;;;;9.56;68.66;99347.84;4996136;27;45344;-86
2023/12/31 08:49:34;;;;;;;;;0.00;0.00;;;;;9.78;68.26;99382.53;4994602;28;45383;-84
2023/12/31 08:52:00;;;;;;;;;1.00;0.00;;;;;9.83;68.42;99395.47;4994001;27;45679;-82
2023/12/31 08:54:25;;;;;;;;;0.00;0.00;;;;;9.75;67.95;99380.06;4993480;28;45668;-82
2023/12/31 08:56:51;;;;;;;;;1.00;1.00;;;;;9.93;68.36;99399.16;4994330;28;57803;-83
2023/12/31 08:59:16;;;;;;;;;0.00;0.00;;;;;9.95;67.46;99410.50;4992190;28;45549;-82
2023/12/31 09:01:42;;;;;;;;;3.67;0.00;;;;;9.98;68.19;99397.00;4983808;27;46105;-82
2023/12/31 09:04:07;;;;;;;;;0.00;0.00;;;;;9.98;67.94;99407.63;4992997;28;45380;-83
2023/12/31 09:06:32;;;;;;;;;0.00;0.00;;;;;9.93;67.21;99388.53;4992551;28;45411;-83
2023/12/31 09:08:58;;;;;;;;;0.00;0.00;;;;;10.08;68.00;99418.44;4994859;28;45376;-83
2023/12/31 09:11:23;;;;;;;;;0.00;0.00;;;;;10.12;66.94;99409.28;4993509;28;46279;-82
2023/12/31 09:13:48;;;;;;;;;1.33;0.00;;;;;10.25;67.24;99410.97;4994553;27;45455;-82
2023/12/31 09:16:13;;;;;;;;;2.67;1.00;;;;;10.29;66.75;99409.78;4995451;28;45289;-83
2023/12/31 09:18:39;;;;;;;;;0.00;0.00;;;;;10.43;66.77;99434.50;4996567;27;45347;-80
2023/12/31 09:21:04;;;;;;;;;3.00;0.00;;;;;10.51;66.52;99440.94;5046090;27;45405;-83
2023/12/31 09:23:29;;;;;;;;;2.33;1.00;;;;;10.58;65.62;99444.84;5015355;27;45454;-81
2023/12/31 09:25:55;;;;;;;;;0.00;0.00;;;;;10.64;65.14;99443.53;5021681;27;49403;-82
2023/12/31 09:28:20;;;;;;;;;0.00;0.00;;;;;10.60;65.42;99437.59;4995202;27;45549;-81
2023/12/31 09:30:46;;;;;;;;;1.00;0.00;;;;;10.54;65.83;99440.69;4992930;28;46655;-80
2023/12/31 09:33:12;;;;;;;;;0.00;0.00;;;;;10.52;65.83;99452.41;4994251;28;52101;-80
2023/12/31 09:35:37;;;;;;;;;1.67;1.00;;;;;10.49;66.31;99461.47;4994365;27;45373;-82
2023/12/31 09:38:02;;;;;;;;;0.00;0.00;;;;;10.45;66.31;99453.84;4994390;28;45534;-80
2023/12/31 09:40:28;;;;;;;;;0.00;0.00;;;;;10.36;66.06;99454.50;4977601;28;46471;-80
2023/12/31 09:42:54;;;;;;;;;8.33;2.00;;;;;10.31;66.39;99458.34;4979463;27;45350;-81
2023/12/31 09:45:23;;;;;;;;;1.00;1.00;;;;;10.36;66.32;99473.97;4991956;28;45513;-80
2023/12/31 09:47:49;;;;;;;;;2.67;1.00;;;;;10.28;66.14;99455.06;5020371;27;45368;-81
2023/12/31 09:50:20;;;;;;;;;2.67;1.00;;;;;10.22;66.22;99471.47;4993679;27;45283;-78
2023/12/31 09:52:49;;;;;;;;;2.00;0.00;;;;;10.21;66.79;99477.69;5010286;27;45388;-81
2023/12/31 09:55:18;;;;;;;;;2.00;1.00;;;;;10.20;66.31;99473.34;5013895;28;45261;-82
2023/12/31 09:57:50;;;;;;;;;1.33;1.00;;;;;10.24;66.69;99477.50;4978082;28;45630;-82
2023/12/31 10:00:16;;;;;;;;;2.00;2.00;;;;;10.29;66.77;99481.53;4974520;28;45312;-83
2023/12/31 10:02:45;;;;;;;;;1.33;1.00;;;;;10.40;66.12;99475.41;4992138;28;45506;-82
2023/12/31 10:05:11;;;;;;;;;1.00;1.00;;;;;10.49;65.71;99480.06;4994193;28;45432;-83
2023/12/31 10:07:36;;;;;;;;;0.00;0.00;;;;;10.60;65.58;99492.59;4994293;28;45377;-83
2023/12/31 10:10:03;;;;;;;;;2.33;1.00;;;;;10.69;64.38;99483.09;4993025;28;46119;-83
2023/12/31 10:12:29;;;;;;;;;1.67;1.00;;;;;10.72;64.89;99488.16;4993771;27;45328;-83
2023/12/31 10:14:55;;;;;;;;;0.67;0.67;;;;;10.75;64.94;99487.94;4993717;28;45421;-82
2023/12/31 10:17:20;;;;;;;;;2.00;2.00;;;;;10.80;64.28;99505.25;4993999;28;45389;-82
2023/12/31 10:19:46;;;;;;;;;2.00;1.00;;;;;10.91;64.29;99489.34;4993381;28;45227;-82
2023/12/31 10:22:13;;;;;;;;;5.00;1.00;;;;;11.10;63.09;99494.13;4993619;28;45320;-81
2023/12/31 10:24:38;;;;;;;;;1.00;1.00;;;;;11.19;63.40;99490.75;4994353;28;45278;-84
2023/12/31 10:27:06;;;;;;;;;1.33;1.00;;;;;11.39;62.74;99483.06;4995146;27;45544;-82
2023/12/31 10:29:32;;;;;;;;;4.00;0.00;;;;;11.52;62.38;99490.00;4993520;28;46209;-82
2023/12/31 10:31:58;;;;;;;;;8.00;1.67;;;;;11.61;62.08;99467.13;4993176;28;45301;-82
2023/12/31 10:34:23;;;;;;;;;1.67;1.67;;;;;11.81;61.10;99471.75;4993389;28;45233;-83
2023/12/31 10:36:49;;;;;;;;;3.67;1.67;;;;;12.01;60.72;99466.69;4991617;27;45650;-81
2023/12/31 10:39:28;;;;;;;;;1.00;1.00;;;;;12.07;59.55;99474.19;4974082;28;45192;-83
2023/12/31 10:41:58;;;;;;;;;4.00;2.00;;;;;12.06;59.80;99461.81;4991701;28;45471;-84
2023/12/31 10:44:25;;;;;;;;;1.00;1.00;;;;;11.98;59.61;99459.78;4977693;28;45411;-82
2023/12/31 10:46:52;;;;;;;;;4.33;2.67;;;;;11.86;59.79;99431.47;4977131;28;45481;-82
2023/12/31 10:49:21;;;;;;;;;3.33;2.00;;;;;11.82;60.05;99436.16;4976936;28;46611;-84
2023/12/31 10:51:48;;;;;;;;;9.00;2.33;;;;;11.90;59.91;99448.03;4977097;28;45394;-81
2023/12/31 10:54:30;;;;;;;;;5.00;2.67;;;;;11.84;59.48;99444.03;4976664;28;45278;-83
2023/12/31 10:56:57;;;;;;;;;2.00;2.00;;;;;11.91;59.93;99420.44;4975950;28;45819;-83
2023/12/31 10:59:25;;;;;;;;;2.67;2.00;;;;;12.11;57.56;99433.00;4976516;28;46373;-82
2023/12/31 11:01:52;;;;;;;;;8.00;1.00;;;;;12.34;57.25;99410.63;4977086;28;45303;-82
2023/12/31 11:04:21;;;;;;;;;3.00;2.00;;;;;12.65;57.35;99438.31;4977387;28;45435;-83
2023/12/31 11:06:47;;;;;;;;;3.33;1.00;;;;;12.69;56.47;99414.88;4978566;28;45472;-82
2023/12/31 11:09:14;;;;;;;;;4.67;2.00;;;;;13.10;55.44;99447.91;4988878;27;45460;-82
2023/12/31 11:11:41;;;;;;;;;3.67;2.33;;;;;13.31;55.04;99426.59;4995616;28;45264;-82
2023/12/31 11:14:10;;;;;;;;;4.00;0.33;;;;;13.40;53.97;99429.28;4996290;27;45474;-82
2023/12/31 11:16:44;;;;;;;;;3.00;2.00;;;;;13.51;52.85;99423.03;4996000;28;45545;-82
2023/12/31 11:19:27;;;;;;;;;1.00;1.00;;;;;13.69;52.21;99426.78;5061253;27;46550;-80
2023/12/31 11:22:20;;;;;;;;;4.00;1.00;;;;;13.94;51.82;99435.31;5031053;27;45463;-82
2023/12/31 11:24:46;;;;;;;;;1.00;1.00;;;;;13.94;50.21;99427.31;4976742;28;45227;-82
2023/12/31 11:27:19;;;;;;;;;2.00;2.00;;;;;14.13;49.44;99430.88;4976426;28;45197;-81
2023/12/31 11:29:46;;;;;;;;;5.67;2.00;;;;;14.39;50.15;99430.34;4975858;27;45964;-79